sensor_id;sensor_type;location;lat;lon;timestamp;P1;durP1;ratioP1;P2;durP2;ratioP2
51451;SDS011;37521;52.020;-1.740;2022-07-17T00:00:13;2.17;;;1.83;;
51451;SDS011;37521;52.020;-1.740;2022-07-17T00:02:43;2.65;;;2.45;;
51451;SDS011;37521;52.020;-1.740;2022-07-17T00:05:11;3.10;;;2.55;;
51451;SDS011;37521;52.020;-1.740;2022-07-17T00:07:39;3.30;;;2.05;;
51451;SDS011;37521;52.020;-1.740;2022-07-17T00:10:09;4.50;;;2.72;;
51451;SDS011;37521;52.020;-1.740;2022-07-17T00:12:39;3.35;;;2.38;;
51451;SDS011;37521;52.020;-1.740;2022-07-17T00:15:07;4.45;;;2.88;;
51451;SDS011;37521;52.020;-1.740;2022-07-17T00:17:35;3.80;;;2.17;;
51451;SDS011;37521;52.020;-1.740;2022-07-17T00:20:04;2.95;;;2.22;;
51451;SDS011;37521;52.020;-1.740;2022-07-17T00:22:33;4.38;;;2.40;;
51451;SDS011;37521;52.020;-1.740;2022-07-17T00:25:02;6.80;;;2.75;;
51451;SDS011;37521;52.020;-1.740;2022-07-17T00:27:33;3.05;;;2.22;;
51451;SDS011;37521;52.020;-1.740;2022-07-17T00:30:02;3.20;;;2.50;;
51451;SDS011;37521;52.020;-1.740;2022-07-17T00:32:31;2.70;;;1.83;;
51451;SDS011;37521;52.020;-1.740;2022-07-17T00:35:00;3.25;;;2.30;;
51451;SDS011;37521;52.020;-1.740;2022-07-17T00:37:30;2.40;;;2.08;;
51451;SDS011;37521;52.020;-1.740;2022-07-17T00:39:59;2.45;;;1.90;;
51451;SDS011;37521;52.020;-1.740;2022-07-17T00:42:27;3.80;;;2.38;;
51451;SDS011;37521;52.020;-1.740;2022-07-17T00:44:57;2.63;;;2.28;;
51451;SDS011;37521;52.020;-1.740;2022-07-17T00:47:25;2.80;;;2.10;;
51451;SDS011;37521;52.020;-1.740;2022-07-17T00:49:53;2.53;;;2.05;;
51451;SDS011;37521;52.020;-1.740;2022-07-17T00:52:21;3.20;;;2.30;;
51451;SDS011;37521;52.020;-1.740;2022-07-17T00:54:50;2.40;;;1.98;;
51451;SDS011;37521;52.020;-1.740;2022-07-17T00:57:42;2.30;;;2.10;;
51451;SDS011;37521;52.020;-1.740;2022-07-17T01:00:16;4.50;;;2.80;;
51451;SDS011;37521;52.020;-1.740;2022-07-17T01:02:46;5.30;;;2.30;;
51451;SDS011;37521;52.020;-1.740;2022-07-17T01:05:16;3.60;;;1.90;;
51451;SDS011;37521;52.020;-1.740;2022-07-17T01:07:46;3.88;;;2.28;;
51451;SDS011;37521;52.020;-1.740;2022-07-17T01:10:16;2.20;;;2.00;;
51451;SDS011;37521;52.020;-1.740;2022-07-17T01:12:46;2.72;;;2.30;;
51451;SDS011;37521;52.020;-1.740;2022-07-17T01:15:17;2.88;;;2.22;;
51451;SDS011;37521;52.020;-1.740;2022-07-17T01:17:45;3.17;;;2.35;;
51451;SDS011;37521;52.020;-1.740;2022-07-17T01:20:14;3.47;;;2.28;;
51451;SDS011;37521;52.020;-1.740;2022-07-17T01:22:44;2.70;;;1.90;;
51451;SDS011;37521;52.020;-1.740;2022-07-17T01:25:15;2.25;;;1.73;;
51451;SDS011;37521;52.020;-1.740;2022-07-17T01:27:44;2.45;;;2.25;;
51451;SDS011;37521;52.020;-1.740;2022-07-17T01:30:13;3.03;;;2.25;;
51451;SDS011;37521;52.020;-1.740;2022-07-17T01:32:41;3.13;;;2.38;;
51451;SDS011;37521;52.020;-1.740;2022-07-17T01:35:11;2.08;;;1.85;;
51451;SDS011;37521;52.020;-1.740;2022-07-17T01:37:41;2.80;;;1.92;;
51451;SDS011;37521;52.020;-1.740;2022-07-17T01:40:13;3.03;;;2.30;;
51451;SDS011;37521;52.020;-1.740;2022-07-17T01:42:43;3.50;;;2.10;;
51451;SDS011;37521;52.020;-1.740;2022-07-17T01:45:13;2.55;;;2.30;;
51451;SDS011;37521;52.020;-1.740;2022-07-17T01:47:43;2.85;;;1.60;;
51451;SDS011;37521;52.020;-1.740;2022-07-17T01:50:11;3.28;;;2.20;;
51451;SDS011;37521;52.020;-1.740;2022-07-17T01:52:41;3.22;;;2.22;;
51451;SDS011;37521;52.020;-1.740;2022-07-17T01:55:14;4.80;;;2.40;;
51451;SDS011;37521;52.020;-1.740;2022-07-17T01:57:43;2.55;;;1.92;;
51451;SDS011;37521;52.020;-1.740;2022-07-17T02:00:13;2.92;;;1.85;;
51451;SDS011;37521;52.020;-1.740;2022-07-17T02:02:44;2.92;;;2.33;;
51451;SDS011;37521;52.020;-1.740;2022-07-17T02:05:13;1.80;;;1.67;;
51451;SDS011;37521;52.020;-1.740;2022-07-17T02:07:42;2.25;;;2.03;;
51451;SDS011;37521;52.020;-1.740;2022-07-17T02:10:12;3.28;;;1.95;;
51451;SDS011;37521;52.020;-1.740;2022-07-17T02:12:42;2.95;;;2.25;;
51451;SDS011;37521;52.020;-1.740;2022-07-17T02:15:10;2.80;;;2.13;;
51451;SDS011;37521;52.020;-1.740;2022-07-17T02:17:39;2.00;;;1.90;;
51451;SDS011;37521;52.020;-1.740;2022-07-17T02:20:09;3.30;;;2.08;;
51451;SDS011;37521;52.020;-1.740;2022-07-17T02:22:38;2.95;;;2.47;;
51451;SDS011;37521;52.020;-1.740;2022-07-17T02:25:09;3.15;;;1.58;;
51451;SDS011;37521;52.020;-1.740;2022-07-17T02:27:37;2.42;;;1.90;;
51451;SDS011;37521;52.020;-1.740;2022-07-17T02:30:07;3.55;;;2.20;;
51451;SDS011;37521;52.020;-1.740;2022-07-17T02:32:38;2.60;;;2.08;;
51451;SDS011;37521;52.020;-1.740;2022-07-17T02:35:08;3.28;;;2.47;;
51451;SDS011;37521;52.020;-1.740;2022-07-17T02:37:37;2.88;;;2.00;;
51451;SDS011;37521;52.020;-1.740;2022-07-17T02:40:06;2.85;;;2.25;;
51451;SDS011;37521;52.020;-1.740;2022-07-17T02:42:37;3.55;;;2.25;;
51451;SDS011;37521;52.020;-1.740;2022-07-17T02:45:06;4.05;;;2.72;;
51451;SDS011;37521;52.020;-1.740;2022-07-17T02:47:36;2.72;;;1.98;;
51451;SDS011;37521;52.020;-1.740;2022-07-17T02:50:06;2.88;;;2.10;;
51451;SDS011;37521;52.020;-1.740;2022-07-17T02:52:36;4.30;;;2.50;;
51451;SDS011;37521;52.020;-1.740;2022-07-17T02:55:04;1.85;;;1.75;;
51451;SDS011;37521;52.020;-1.740;2022-07-17T02:57:35;2.50;;;2.30;;
51451;SDS011;37521;52.020;-1.740;2022-07-17T03:00:04;2.67;;;2.08;;
51451;SDS011;37521;52.020;-1.740;2022-07-17T03:02:35;2.75;;;1.85;;
51451;SDS011;37521;52.020;-1.740;2022-07-17T03:05:03;5.30;;;1.90;;
51451;SDS011;37521;52.020;-1.740;2022-07-17T03:07:32;3.78;;;1.92;;
51451;SDS011;37521;52.020;-1.740;2022-07-17T03:10:01;2.47;;;1.73;;
51451;SDS011;37521;52.020;-1.740;2022-07-17T03:12:30;2.40;;;2.08;;
51451;SDS011;37521;52.020;-1.740;2022-07-17T03:15:00;5.18;;;2.55;;
51451;SDS011;37521;52.020;-1.740;2022-07-17T03:17:28;2.38;;;2.15;;
51451;SDS011;37521;52.020;-1.740;2022-07-17T03:19:57;2.28;;;2.08;;
51451;SDS011;37521;52.020;-1.740;2022-07-17T03:22:26;4.90;;;2.42;;
51451;SDS011;37521;52.020;-1.740;2022-07-17T03:24:54;4.65;;;2.10;;
51451;SDS011;37521;52.020;-1.740;2022-07-17T03:27:23;2.30;;;1.80;;
51451;SDS011;37521;52.020;-1.740;2022-07-17T03:29:52;2.55;;;1.98;;
51451;SDS011;37521;52.020;-1.740;2022-07-17T03:32:22;2.58;;;2.17;;
51451;SDS011;37521;52.020;-1.740;2022-07-17T03:34:50;2.25;;;1.88;;
51451;SDS011;37521;52.020;-1.740;2022-07-17T03:37:19;3.20;;;2.08;;
51451;SDS011;37521;52.020;-1.740;2022-07-17T03:39:47;3.08;;;1.83;;
51451;SDS011;37521;52.020;-1.740;2022-07-17T03:42:15;4.22;;;2.03;;
51451;SDS011;37521;52.020;-1.740;2022-07-17T03:44:44;2.35;;;1.77;;
51451;SDS011;37521;52.020;-1.740;2022-07-17T03:47:12;3.83;;;2.22;;
51451;SDS011;37521;52.020;-1.740;2022-07-17T03:49:42;3.22;;;1.80;;
51451;SDS011;37521;52.020;-1.740;2022-07-17T03:52:10;3.03;;;2.00;;
51451;SDS011;37521;52.020;-1.740;2022-07-17T03:54:39;2.60;;;2.33;;
51451;SDS011;37521;52.020;-1.740;2022-07-17T03:57:07;5.35;;;2.28;;
51451;SDS011;37521;52.020;-1.740;2022-07-17T03:59:36;3.75;;;2.17;;
51451;SDS011;37521;52.020;-1.740;2022-07-17T04:02:05;3.40;;;2.08;;
51451;SDS011;37521;52.020;-1.740;2022-07-17T04:04:33;4.07;;;2.45;;
51451;SDS011;37521;52.020;-1.740;2022-07-17T04:07:03;4.55;;;2.80;;
51451;SDS011;37521;52.020;-1.740;2022-07-17T04:09:32;3.90;;;2.50;;
51451;SDS011;37521;52.020;-1.740;2022-07-17T04:12:00;4.22;;;2.80;;
51451;SDS011;37521;52.020;-1.740;2022-07-17T04:14:29;4.68;;;2.90;;
51451;SDS011;37521;52.020;-1.740;2022-07-17T04:16:57;2.72;;;2.50;;
51451;SDS011;37521;52.020;-1.740;2022-07-17T04:19:25;3.85;;;3.03;;
51451;SDS011;37521;52.020;-1.740;2022-07-17T04:21:53;7.28;;;2.88;;
51451;SDS011;37521;52.020;-1.740;2022-07-17T04:24:23;5.03;;;3.17;;
51451;SDS011;37521;52.020;-1.740;2022-07-17T04:26:51;5.32;;;3.17;;
51451;SDS011;37521;52.020;-1.740;2022-07-17T04:29:20;8.73;;;4.32;;
51451;SDS011;37521;52.020;-1.740;2022-07-17T04:31:48;7.47;;;3.72;;
51451;SDS011;37521;52.020;-1.740;2022-07-17T04:34:17;5.95;;;3.70;;
51451;SDS011;37521;52.020;-1.740;2022-07-17T04:36:46;4.80;;;3.70;;
51451;SDS011;37521;52.020;-1.740;2022-07-17T04:39:14;5.38;;;3.72;;
51451;SDS011;37521;52.020;-1.740;2022-07-17T04:41:44;7.30;;;4.13;;
51451;SDS011;37521;52.020;-1.740;2022-07-17T04:44:12;7.38;;;4.40;;
51451;SDS011;37521;52.020;-1.740;2022-07-17T04:46:40;7.25;;;4.63;;
51451;SDS011;37521;52.020;-1.740;2022-07-17T04:49:08;5.70;;;3.92;;
51451;SDS011;37521;52.020;-1.740;2022-07-17T04:51:37;6.72;;;4.55;;
51451;SDS011;37521;52.020;-1.740;2022-07-17T04:54:05;5.82;;;3.58;;
51451;SDS011;37521;52.020;-1.740;2022-07-17T04:56:34;6.88;;;3.60;;
51451;SDS011;37521;52.020;-1.740;2022-07-17T04:59:04;4.32;;;3.25;;
51451;SDS011;37521;52.020;-1.740;2022-07-17T05:01:33;4.97;;;3.05;;
51451;SDS011;37521;52.020;-1.740;2022-07-17T05:04:01;3.55;;;1.83;;
51451;SDS011;37521;52.020;-1.740;2022-07-17T05:06:30;3.10;;;2.50;;
51451;SDS011;37521;52.020;-1.740;2022-07-17T05:08:59;4.57;;;2.85;;
51451;SDS011;37521;52.020;-1.740;2022-07-17T05:11:27;6.45;;;2.83;;
51451;SDS011;37521;52.020;-1.740;2022-07-17T05:13:56;4.45;;;2.67;;
51451;SDS011;37521;52.020;-1.740;2022-07-17T05:16:25;3.38;;;2.75;;
51451;SDS011;37521;52.020;-1.740;2022-07-17T05:18:54;5.22;;;2.85;;
51451;SDS011;37521;52.020;-1.740;2022-07-17T05:21:22;3.78;;;2.38;;
51451;SDS011;37521;52.020;-1.740;2022-07-17T05:23:51;2.92;;;2.63;;
51451;SDS011;37521;52.020;-1.740;2022-07-17T05:26:20;4.68;;;3.20;;
51451;SDS011;37521;52.020;-1.740;2022-07-17T05:28:49;3.35;;;2.92;;
51451;SDS011;37521;52.020;-1.740;2022-07-17T05:31:17;4.80;;;3.15;;
51451;SDS011;37521;52.020;-1.740;2022-07-17T05:33:47;4.63;;;3.13;;
51451;SDS011;37521;52.020;-1.740;2022-07-17T05:36:22;4.28;;;3.47;;
51451;SDS011;37521;52.020;-1.740;2022-07-17T05:38:50;4.63;;;2.83;;
51451;SDS011;37521;52.020;-1.740;2022-07-17T05:41:19;5.80;;;3.53;;
51451;SDS011;37521;52.020;-1.740;2022-07-17T05:43:48;5.43;;;2.92;;
51451;SDS011;37521;52.020;-1.740;2022-07-17T05:46:16;4.95;;;3.20;;
51451;SDS011;37521;52.020;-1.740;2022-07-17T05:48:45;4.22;;;2.55;;
51451;SDS011;37521;52.020;-1.740;2022-07-17T05:51:15;8.98;;;3.38;;
51451;SDS011;37521;52.020;-1.740;2022-07-17T05:53:50;6.60;;;3.30;;
51451;SDS011;37521;52.020;-1.740;2022-07-17T05:56:18;4.82;;;3.40;;
51451;SDS011;37521;52.020;-1.740;2022-07-17T05:58:47;6.57;;;3.50;;
51451;SDS011;37521;52.020;-1.740;2022-07-17T06:01:15;5.63;;;3.53;;
51451;SDS011;37521;52.020;-1.740;2022-07-17T06:03:44;6.47;;;3.75;;
51451;SDS011;37521;52.020;-1.740;2022-07-17T06:06:14;8.77;;;3.75;;
51451;SDS011;37521;52.020;-1.740;2022-07-17T06:08:43;5.53;;;3.28;;
51451;SDS011;37521;52.020;-1.740;2022-07-17T06:11:11;7.35;;;3.72;;
51451;SDS011;37521;52.020;-1.740;2022-07-17T06:13:39;4.53;;;3.85;;
51451;SDS011;37521;52.020;-1.740;2022-07-17T06:16:08;4.07;;;3.47;;
51451;SDS011;37521;52.020;-1.740;2022-07-17T06:18:36;5.40;;;3.80;;
51451;SDS011;37521;52.020;-1.740;2022-07-17T06:21:05;7.90;;;3.75;;
51451;SDS011;37521;52.020;-1.740;2022-07-17T06:23:35;6.82;;;3.70;;
51451;SDS011;37521;52.020;-1.740;2022-07-17T06:26:04;4.93;;;2.90;;
51451;SDS011;37521;52.020;-1.740;2022-07-17T06:28:32;4.68;;;2.83;;
51451;SDS011;37521;52.020;-1.740;2022-07-17T06:31:01;4.75;;;3.03;;
51451;SDS011;37521;52.020;-1.740;2022-07-17T06:33:29;3.70;;;2.38;;
51451;SDS011;37521;52.020;-1.740;2022-07-17T06:35:57;2.40;;;2.20;;
51451;SDS011;37521;52.020;-1.740;2022-07-17T06:38:26;4.38;;;2.17;;
51451;SDS011;37521;52.020;-1.740;2022-07-17T06:40:55;3.92;;;2.13;;
51451;SDS011;37521;52.020;-1.740;2022-07-17T06:43:23;3.13;;;1.88;;
51451;SDS011;37521;52.020;-1.740;2022-07-17T06:45:51;3.50;;;2.40;;
51451;SDS011;37521;52.020;-1.740;2022-07-17T06:48:21;3.78;;;2.40;;
51451;SDS011;37521;52.020;-1.740;2022-07-17T06:50:50;3.35;;;2.10;;
51451;SDS011;37521;52.020;-1.740;2022-07-17T06:53:18;5.20;;;2.67;;
51451;SDS011;37521;52.020;-1.740;2022-07-17T06:55:47;2.35;;;1.98;;
51451;SDS011;37521;52.020;-1.740;2022-07-17T06:58:17;2.30;;;2.10;;
51451;SDS011;37521;52.020;-1.740;2022-07-17T07:00:45;3.72;;;2.10;;
51451;SDS011;37521;52.020;-1.740;2022-07-17T07:03:13;5.25;;;2.40;;
51451;SDS011;37521;52.020;-1.740;2022-07-17T07:05:41;4.90;;;2.90;;
51451;SDS011;37521;52.020;-1.740;2022-07-17T07:08:09;2.70;;;2.30;;
51451;SDS011;37521;52.020;-1.740;2022-07-17T07:10:38;4.00;;;2.40;;
51451;SDS011;37521;52.020;-1.740;2022-07-17T07:13:06;3.13;;;2.10;;
51451;SDS011;37521;52.020;-1.740;2022-07-17T07:15:36;4.25;;;2.10;;
51451;SDS011;37521;52.020;-1.740;2022-07-17T07:18:04;4.93;;;2.22;;
51451;SDS011;37521;52.020;-1.740;2022-07-17T07:20:33;3.58;;;2.03;;
51451;SDS011;37521;52.020;-1.740;2022-07-17T07:23:01;3.28;;;1.67;;
51451;SDS011;37521;52.020;-1.740;2022-07-17T07:25:33;2.55;;;1.65;;
51451;SDS011;37521;52.020;-1.740;2022-07-17T07:28:01;3.92;;;1.95;;
51451;SDS011;37521;52.020;-1.740;2022-07-17T07:30:30;4.68;;;2.00;;
51451;SDS011;37521;52.020;-1.740;2022-07-17T07:32:59;3.22;;;2.20;;
51451;SDS011;37521;52.020;-1.740;2022-07-17T07:35:28;3.88;;;2.40;;
51451;SDS011;37521;52.020;-1.740;2022-07-17T07:37:56;2.95;;;1.73;;
51451;SDS011;37521;52.020;-1.740;2022-07-17T07:40:25;3.15;;;2.05;;
51451;SDS011;37521;52.020;-1.740;2022-07-17T07:42:53;2.10;;;1.88;;
51451;SDS011;37521;52.020;-1.740;2022-07-17T07:45:21;1.65;;;1.52;;
51451;SDS011;37521;52.020;-1.740;2022-07-17T07:47:50;2.50;;;1.67;;
51451;SDS011;37521;52.020;-1.740;2022-07-17T07:50:21;2.95;;;1.80;;
51451;SDS011;37521;52.020;-1.740;2022-07-17T07:52:51;2.80;;;1.65;;
51451;SDS011;37521;52.020;-1.740;2022-07-17T07:55:20;2.83;;;1.92;;
51451;SDS011;37521;52.020;-1.740;2022-07-17T07:57:49;3.95;;;1.88;;
51451;SDS011;37521;52.020;-1.740;2022-07-17T08:00:17;3.90;;;2.15;;
51451;SDS011;37521;52.020;-1.740;2022-07-17T08:02:46;4.15;;;2.45;;
51451;SDS011;37521;52.020;-1.740;2022-07-17T08:05:14;2.60;;;1.90;;
51451;SDS011;37521;52.020;-1.740;2022-07-17T08:07:44;2.40;;;2.15;;
51451;SDS011;37521;52.020;-1.740;2022-07-17T08:10:12;2.45;;;2.22;;
51451;SDS011;37521;52.020;-1.740;2022-07-17T08:12:41;2.78;;;1.38;;
51451;SDS011;37521;52.020;-1.740;2022-07-17T08:15:12;1.67;;;1.48;;
51451;SDS011;37521;52.020;-1.740;2022-07-17T08:17:41;2.40;;;1.73;;
51451;SDS011;37521;52.020;-1.740;2022-07-17T08:20:10;1.77;;;1.63;;
51451;SDS011;37521;52.020;-1.740;2022-07-17T08:22:40;3.17;;;1.48;;
51451;SDS011;37521;52.020;-1.740;2022-07-17T08:25:30;1.98;;;1.48;;
51451;SDS011;37521;52.020;-1.740;2022-07-17T08:28:01;1.83;;;1.35;;
51451;SDS011;37521;52.020;-1.740;2022-07-17T08:30:30;1.50;;;1.40;;
51451;SDS011;37521;52.020;-1.740;2022-07-17T08:33:02;3.55;;;1.98;;
51451;SDS011;37521;52.020;-1.740;2022-07-17T08:35:30;2.60;;;1.73;;
51451;SDS011;37521;52.020;-1.740;2022-07-17T08:37:59;1.20;;;1.10;;
51451;SDS011;37521;52.020;-1.740;2022-07-17T08:40:29;1.30;;;1.20;;
51451;SDS011;37521;52.020;-1.740;2022-07-17T08:43:01;1.38;;;1.23;;
51451;SDS011;37521;52.020;-1.740;2022-07-17T08:45:32;2.10;;;1.10;;
51451;SDS011;37521;52.020;-1.740;2022-07-17T08:48:01;2.20;;;1.48;;
51451;SDS011;37521;52.020;-1.740;2022-07-17T08:50:31;1.15;;;1.05;;
51451;SDS011;37521;52.020;-1.740;2022-07-17T08:53:01;3.03;;;1.50;;
51451;SDS011;37521;52.020;-1.740;2022-07-17T08:55:32;3.80;;;1.50;;
51451;SDS011;37521;52.020;-1.740;2022-07-17T08:58:00;1.60;;;1.50;;
51451;SDS011;37521;52.020;-1.740;2022-07-17T09:00:31;1.02;;;1.00;;
51451;SDS011;37521;52.020;-1.740;2022-07-17T09:03:00;1.63;;;1.13;;
51451;SDS011;37521;52.020;-1.740;2022-07-17T09:05:31;1.25;;;1.00;;
51451;SDS011;37521;52.020;-1.740;2022-07-17T09:08:03;3.42;;;1.45;;
51451;SDS011;37521;52.020;-1.740;2022-07-17T09:10:34;1.30;;;1.20;;
51451;SDS011;37521;52.020;-1.740;2022-07-17T09:15:56;1.73;;;1.10;;
51451;SDS011;37521;52.020;-1.740;2022-07-17T09:18:26;1.65;;;1.25;;
51451;SDS011;37521;52.020;-1.740;2022-07-17T09:20:55;1.52;;;1.33;;
51451;SDS011;37521;52.020;-1.740;2022-07-17T09:23:25;1.25;;;1.00;;
51451;SDS011;37521;52.020;-1.740;2022-07-17T09:25:56;1.35;;;1.20;;
51451;SDS011;37521;52.020;-1.740;2022-07-17T09:28:25;0.90;;;0.90;;
51451;SDS011;37521;52.020;-1.740;2022-07-17T09:30:54;1.45;;;1.30;;
51451;SDS011;37521;52.020;-1.740;2022-07-17T09:33:24;1.70;;;1.38;;
51451;SDS011;37521;52.020;-1.740;2022-07-17T09:35:55;1.10;;;1.00;;
51451;SDS011;37521;52.020;-1.740;2022-07-17T09:38:26;3.05;;;1.30;;
51451;SDS011;37521;52.020;-1.740;2022-07-17T09:43:47;1.27;;;1.15;;
51451;SDS011;37521;52.020;-1.740;2022-07-17T09:46:18;3.63;;;1.60;;
51451;SDS011;37521;52.020;-1.740;2022-07-17T09:48:49;2.65;;;1.55;;
51451;SDS011;37521;52.020;-1.740;2022-07-17T09:51:20;1.67;;;1.27;;
51451;SDS011;37521;52.020;-1.740;2022-07-17T09:53:51;0.82;;;0.82;;
51451;SDS011;37521;52.020;-1.740;2022-07-17T09:56:23;2.80;;;1.25;;
51451;SDS011;37521;52.020;-1.740;2022-07-17T09:58:54;2.90;;;1.10;;
51451;SDS011;37521;52.020;-1.740;2022-07-17T10:01:24;5.38;;;1.60;;
51451;SDS011;37521;52.020;-1.740;2022-07-17T10:03:53;2.85;;;1.00;;
51451;SDS011;37521;52.020;-1.740;2022-07-17T10:06:22;3.05;;;1.27;;
51451;SDS011;37521;52.020;-1.740;2022-07-17T10:08:52;1.20;;;1.10;;
51451;SDS011;37521;52.020;-1.740;2022-07-17T10:11:24;1.55;;;1.30;;
51451;SDS011;37521;52.020;-1.740;2022-07-17T10:13:55;1.38;;;1.20;;
51451;SDS011;37521;52.020;-1.740;2022-07-17T10:16:31;4.20;;;0.88;;
51451;SDS011;37521;52.020;-1.740;2022-07-17T10:19:01;5.07;;;1.55;;
51451;SDS011;37521;52.020;-1.740;2022-07-17T10:21:30;1.17;;;0.93;;
51451;SDS011;37521;52.020;-1.740;2022-07-17T10:24:05;2.00;;;1.23;;
51451;SDS011;37521;52.020;-1.740;2022-07-17T10:26:39;1.73;;;1.50;;
51451;SDS011;37521;52.020;-1.740;2022-07-17T10:29:26;1.23;;;0.98;;
51451;SDS011;37521;52.020;-1.740;2022-07-17T10:31:58;3.30;;;1.00;;
51451;SDS011;37521;52.020;-1.740;2022-07-17T10:37:16;1.50;;;1.10;;
51451;SDS011;37521;52.020;-1.740;2022-07-17T10:42:41;1.25;;;1.08;;
51451;SDS011;37521;52.020;-1.740;2022-07-17T10:45:25;1.25;;;0.98;;
51451;SDS011;37521;52.020;-1.740;2022-07-17T10:47:56;1.02;;;0.93;;
51451;SDS011;37521;52.020;-1.740;2022-07-17T10:50:27;1.58;;;1.00;;
51451;SDS011;37521;52.020;-1.740;2022-07-17T10:53:04;1.50;;;1.30;;
51451;SDS011;37521;52.020;-1.740;2022-07-17T10:55:35;2.22;;;1.10;;
51451;SDS011;37521;52.020;-1.740;2022-07-17T10:58:14;0.98;;;0.95;;
51451;SDS011;37521;52.020;-1.740;2022-07-17T11:00:55;0.82;;;0.82;;
51451;SDS011;37521;52.020;-1.740;2022-07-17T11:03:25;2.78;;;1.52;;
51451;SDS011;37521;52.020;-1.740;2022-07-17T11:05:53;1.45;;;1.20;;
51451;SDS011;37521;52.020;-1.740;2022-07-17T11:08:22;1.58;;;1.45;;
51451;SDS011;37521;52.020;-1.740;2022-07-17T11:10:50;1.33;;;1.10;;
51451;SDS011;37521;52.020;-1.740;2022-07-17T11:13:21;1.45;;;1.17;;
51451;SDS011;37521;52.020;-1.740;2022-07-17T11:15:49;1.27;;;1.05;;
51451;SDS011;37521;52.020;-1.740;2022-07-17T11:18:18;2.47;;;1.55;;
51451;SDS011;37521;52.020;-1.740;2022-07-17T11:20:48;1.58;;;1.48;;
51451;SDS011;37521;52.020;-1.740;2022-07-17T11:23:18;1.63;;;1.52;;
51451;SDS011;37521;52.020;-1.740;2022-07-17T11:28:37;2.53;;;1.70;;
51451;SDS011;37521;52.020;-1.740;2022-07-17T11:33:55;2.90;;;1.50;;
51451;SDS011;37521;52.020;-1.740;2022-07-17T11:36:25;1.70;;;1.40;;
51451;SDS011;37521;52.020;-1.740;2022-07-17T11:38:57;1.77;;;1.35;;
51451;SDS011;37521;52.020;-1.740;2022-07-17T11:41:30;3.42;;;1.73;;
51451;SDS011;37521;52.020;-1.740;2022-07-17T11:44:02;1.75;;;1.40;;
51451;SDS011;37521;52.020;-1.740;2022-07-17T11:46:31;1.98;;;1.45;;
51451;SDS011;37521;52.020;-1.740;2022-07-17T11:49:01;1.50;;;1.30;;
51451;SDS011;37521;52.020;-1.740;2022-07-17T11:51:35;1.73;;;1.55;;
51451;SDS011;37521;52.020;-1.740;2022-07-17T11:54:06;3.30;;;1.90;;
51451;SDS011;37521;52.020;-1.740;2022-07-17T11:56:36;1.67;;;1.27;;
51451;SDS011;37521;52.020;-1.740;2022-07-17T11:59:06;2.22;;;1.20;;
51451;SDS011;37521;52.020;-1.740;2022-07-17T12:01:38;2.60;;;1.90;;
51451;SDS011;37521;52.020;-1.740;2022-07-17T12:04:08;1.90;;;1.75;;
51451;SDS011;37521;52.020;-1.740;2022-07-17T12:06:43;2.95;;;1.75;;
51451;SDS011;37521;52.020;-1.740;2022-07-17T12:09:12;1.77;;;1.20;;
51451;SDS011;37521;52.020;-1.740;2022-07-17T12:11:47;3.30;;;1.60;;
51451;SDS011;37521;52.020;-1.740;2022-07-17T12:14:17;1.40;;;1.20;;
51451;SDS011;37521;52.020;-1.740;2022-07-17T12:16:46;2.55;;;1.48;;
51451;SDS011;37521;52.020;-1.740;2022-07-17T12:19:15;2.17;;;1.45;;
51451;SDS011;37521;52.020;-1.740;2022-07-17T12:21:47;3.70;;;1.90;;
51451;SDS011;37521;52.020;-1.740;2022-07-17T12:24:18;1.52;;;1.42;;
51451;SDS011;37521;52.020;-1.740;2022-07-17T12:26:49;2.42;;;1.42;;
51451;SDS011;37521;52.020;-1.740;2022-07-17T12:29:19;1.90;;;1.60;;
51451;SDS011;37521;52.020;-1.740;2022-07-17T12:31:48;1.80;;;1.70;;
51451;SDS011;37521;52.020;-1.740;2022-07-17T12:34:27;2.35;;;1.60;;
51451;SDS011;37521;52.020;-1.740;2022-07-17T12:36:55;2.03;;;1.83;;
51451;SDS011;37521;52.020;-1.740;2022-07-17T12:39:23;3.45;;;1.90;;
51451;SDS011;37521;52.020;-1.740;2022-07-17T12:41:52;2.17;;;1.50;;
51451;SDS011;37521;52.020;-1.740;2022-07-17T12:44:22;2.08;;;1.90;;
51451;SDS011;37521;52.020;-1.740;2022-07-17T12:46:50;2.45;;;2.25;;
51451;SDS011;37521;52.020;-1.740;2022-07-17T12:49:18;2.72;;;2.50;;
51451;SDS011;37521;52.020;-1.740;2022-07-17T12:51:46;2.13;;;1.90;;
51451;SDS011;37521;52.020;-1.740;2022-07-17T12:54:15;3.05;;;1.90;;
51451;SDS011;37521;52.020;-1.740;2022-07-17T12:56:43;2.05;;;1.90;;
51451;SDS011;37521;52.020;-1.740;2022-07-17T12:59:11;1.88;;;1.65;;
51451;SDS011;37521;52.020;-1.740;2022-07-17T13:01:41;3.33;;;1.67;;
51451;SDS011;37521;52.020;-1.740;2022-07-17T13:04:09;2.05;;;1.17;;
51451;SDS011;37521;52.020;-1.740;2022-07-17T13:06:37;2.08;;;1.70;;
51451;SDS011;37521;52.020;-1.740;2022-07-17T13:09:06;1.70;;;1.60;;
51451;SDS011;37521;52.020;-1.740;2022-07-17T13:11:34;2.65;;;1.60;;
51451;SDS011;37521;52.020;-1.740;2022-07-17T13:14:03;1.63;;;1.33;;
51451;SDS011;37521;52.020;-1.740;2022-07-17T13:16:33;1.63;;;1.40;;
51451;SDS011;37521;52.020;-1.740;2022-07-17T13:19:03;2.47;;;1.50;;
51451;SDS011;37521;52.020;-1.740;2022-07-17T13:21:32;1.70;;;1.35;;
51451;SDS011;37521;52.020;-1.740;2022-07-17T13:24:01;2.33;;;1.38;;
51451;SDS011;37521;52.020;-1.740;2022-07-17T13:26:30;2.45;;;1.80;;
51451;SDS011;37521;52.020;-1.740;2022-07-17T13:28:58;2.00;;;1.77;;
51451;SDS011;37521;52.020;-1.740;2022-07-17T13:31:27;1.67;;;1.48;;
51451;SDS011;37521;52.020;-1.740;2022-07-17T13:33:56;2.17;;;1.98;;
51451;SDS011;37521;52.020;-1.740;2022-07-17T13:36:26;3.55;;;1.88;;
51451;SDS011;37521;52.020;-1.740;2022-07-17T13:38:54;1.77;;;1.27;;
51451;SDS011;37521;52.020;-1.740;2022-07-17T13:41:22;1.73;;;1.20;;
51451;SDS011;37521;52.020;-1.740;2022-07-17T13:43:51;1.67;;;1.42;;
51451;SDS011;37521;52.020;-1.740;2022-07-17T13:46:19;2.13;;;1.30;;
51451;SDS011;37521;52.020;-1.740;2022-07-17T13:48:48;1.90;;;1.70;;
51451;SDS011;37521;52.020;-1.740;2022-07-17T13:51:16;2.85;;;1.30;;
51451;SDS011;37521;52.020;-1.740;2022-07-17T13:53:46;2.85;;;1.60;;
51451;SDS011;37521;52.020;-1.740;2022-07-17T13:56:14;1.85;;;1.45;;
51451;SDS011;37521;52.020;-1.740;2022-07-17T13:58:43;2.60;;;1.77;;
51451;SDS011;37521;52.020;-1.740;2022-07-17T14:01:12;2.35;;;1.48;;
51451;SDS011;37521;52.020;-1.740;2022-07-17T14:03:48;3.72;;;2.05;;
51451;SDS011;37521;52.020;-1.740;2022-07-17T14:06:16;1.75;;;1.65;;
51451;SDS011;37521;52.020;-1.740;2022-07-17T14:08:47;2.08;;;1.80;;
51451;SDS011;37521;52.020;-1.740;2022-07-17T14:11:15;2.50;;;1.50;;
51451;SDS011;37521;52.020;-1.740;2022-07-17T14:13:43;2.42;;;2.00;;
51451;SDS011;37521;52.020;-1.740;2022-07-17T14:16:16;3.85;;;2.10;;
51451;SDS011;37521;52.020;-1.740;2022-07-17T14:18:44;2.30;;;1.77;;
51451;SDS011;37521;52.020;-1.740;2022-07-17T14:21:31;2.08;;;1.92;;
51451;SDS011;37521;52.020;-1.740;2022-07-17T14:24:02;2.50;;;2.10;;
51451;SDS011;37521;52.020;-1.740;2022-07-17T14:26:31;2.72;;;2.53;;
51451;SDS011;37521;52.020;-1.740;2022-07-17T14:28:59;2.67;;;1.60;;
51451;SDS011;37521;52.020;-1.740;2022-07-17T14:31:28;3.78;;;2.38;;
51451;SDS011;37521;52.020;-1.740;2022-07-17T14:33:56;2.58;;;2.10;;
51451;SDS011;37521;52.020;-1.740;2022-07-17T14:36:25;1.70;;;1.60;;
51451;SDS011;37521;52.020;-1.740;2022-07-17T14:38:54;3.72;;;2.00;;
51451;SDS011;37521;52.020;-1.740;2022-07-17T14:41:24;2.38;;;2.17;;
51451;SDS011;37521;52.020;-1.740;2022-07-17T14:43:52;2.13;;;1.60;;
51451;SDS011;37521;52.020;-1.740;2022-07-17T14:46:21;4.47;;;2.25;;
51451;SDS011;37521;52.020;-1.740;2022-07-17T14:48:49;2.95;;;2.65;;
51451;SDS011;37521;52.020;-1.740;2022-07-17T14:51:18;3.20;;;2.00;;
51451;SDS011;37521;52.020;-1.740;2022-07-17T14:53:46;4.28;;;2.58;;
51451;SDS011;37521;52.020;-1.740;2022-07-17T14:56:14;3.30;;;2.28;;
51451;SDS011;37521;52.020;-1.740;2022-07-17T14:58:44;3.28;;;2.45;;
51451;SDS011;37521;52.020;-1.740;2022-07-17T15:01:13;4.05;;;2.83;;
51451;SDS011;37521;52.020;-1.740;2022-07-17T15:03:41;2.75;;;2.20;;